sensor_id;sensor_type;location;lat;lon;timestamp;pressure;altitude;pressure_sealevel;temperature;humidity
79250;BME280;68679;51.030;7.584;2024-02-23T00:00:24;96343.38;;;7.45;70.13
79250;BME280;68679;51.030;7.584;2024-02-23T00:02:49;96350.13;;;7.46;72.08
79250;BME280;68679;51.030;7.584;2024-02-23T00:05:14;96347.84;;;7.44;71.10
79250;BME280;68679;51.030;7.584;2024-02-23T00:07:39;96352.28;;;7.44;71.63
79250;BME280;68679;51.030;7.584;2024-02-23T00:10:05;96351.97;;;7.45;71.66
79250;BME280;68679;51.030;7.584;2024-02-23T00:12:31;96358.59;;;7.43;71.91
79250;BME280;68679;51.030;7.584;2024-02-23T00:14:56;96365.50;;;7.39;71.32
79250;BME280;68679;51.030;7.584;2024-02-23T00:17:21;96369.50;;;7.36;70.53
79250;BME280;68679;51.030;7.584;2024-02-23T00:19:47;96392.66;;;7.38;71.32
79250;BME280;68679;51.030;7.584;2024-02-23T00:22:12;96410.47;;;7.36;71.04
79250;BME280;68679;51.030;7.584;2024-02-23T00:24:38;96400.47;;;7.38;71.28
79250;BME280;68679;51.030;7.584;2024-02-23T00:27:03;96419.84;;;7.28;70.77
79250;BME280;68679;51.030;7.584;2024-02-23T00:29:29;96417.38;;;7.32;72.35
79250;BME280;68679;51.030;7.584;2024-02-23T00:31:54;96444.19;;;7.32;70.55
79250;BME280;68679;51.030;7.584;2024-02-23T00:34:19;96440.09;;;7.22;70.42
79250;BME280;68679;51.030;7.584;2024-02-23T00:36:44;96440.56;;;7.24;71.52
79250;BME280;68679;51.030;7.584;2024-02-23T00:39:10;96448.97;;;7.30;72.22
79250;BME280;68679;51.030;7.584;2024-02-23T00:41:36;96448.19;;;7.30;71.12
79250;BME280;68679;51.030;7.584;2024-02-23T00:44:04;96455.84;;;7.35;72.23
79250;BME280;68679;51.030;7.584;2024-02-23T00:46:29;96461.34;;;7.33;71.53
79250;BME280;68679;51.030;7.584;2024-02-23T00:48:55;96463.66;;;7.35;71.62
79250;BME280;68679;51.030;7.584;2024-02-23T00:51:20;96472.25;;;7.35;72.22
79250;BME280;68679;51.030;7.584;2024-02-23T00:53:46;96481.16;;;7.34;72.11
79250;BME280;68679;51.030;7.584;2024-02-23T00:56:11;96487.28;;;7.30;71.78
79250;BME280;68679;51.030;7.584;2024-02-23T00:58:37;96507.56;;;7.24;71.70
79250;BME280;68679;51.030;7.584;2024-02-23T01:01:03;96492.25;;;7.14;71.68
79250;BME280;68679;51.030;7.584;2024-02-23T01:03:28;96504.94;;;7.15;71.22
79250;BME280;68679;51.030;7.584;2024-02-23T01:05:53;96512.47;;;7.17;71.12
79250;BME280;68679;51.030;7.584;2024-02-23T01:08:19;96519.97;;;7.18;72.03
79250;BME280;68679;51.030;7.584;2024-02-23T01:10:44;96517.69;;;7.17;71.32
79250;BME280;68679;51.030;7.584;2024-02-23T01:13:10;96527.94;;;7.13;70.84
79250;BME280;68679;51.030;7.584;2024-02-23T01:15:35;96525.94;;;7.19;73.24
79250;BME280;68679;51.030;7.584;2024-02-23T01:18:00;96527.47;;;7.20;72.14
79250;BME280;68679;51.030;7.584;2024-02-23T01:20:26;96532.84;;;7.15;71.36
79250;BME280;68679;51.030;7.584;2024-02-23T01:22:51;96533.94;;;7.14;71.45
79250;BME280;68679;51.030;7.584;2024-02-23T01:25:16;96529.47;;;7.14;72.70
79250;BME280;68679;51.030;7.584;2024-02-23T01:27:42;96541.13;;;7.17;73.37
79250;BME280;68679;51.030;7.584;2024-02-23T01:30:09;96549.56;;;7.14;72.68
79250;BME280;68679;51.030;7.584;2024-02-23T01:32:35;96555.53;;;7.14;72.90
79250;BME280;68679;51.030;7.584;2024-02-23T01:35:02;96554.47;;;7.15;72.69
79250;BME280;68679;51.030;7.584;2024-02-23T01:37:28;96561.50;;;7.15;72.05
79250;BME280;68679;51.030;7.584;2024-02-23T01:39:53;96555.22;;;7.16;72.40
79250;BME280;68679;51.030;7.584;2024-02-23T01:42:18;96565.50;;;7.12;72.21
79250;BME280;68679;51.030;7.584;2024-02-23T01:44:44;96562.47;;;7.10;71.78
79250;BME280;68679;51.030;7.584;2024-02-23T01:47:09;96566.13;;;7.09;73.02
79250;BME280;68679;51.030;7.584;2024-02-23T01:49:35;96561.09;;;7.04;71.75
79250;BME280;68679;51.030;7.584;2024-02-23T01:52:01;96558.94;;;7.06;73.00
79250;BME280;68679;51.030;7.584;2024-02-23T01:54:27;96564.28;;;7.01;72.11
79250;BME280;68679;51.030;7.584;2024-02-23T01:56:54;96557.88;;;6.98;72.23
79250;BME280;68679;51.030;7.584;2024-02-23T01:59:21;96551.44;;;6.96;71.78
79250;BME280;68679;51.030;7.584;2024-02-23T02:01:46;96570.13;;;6.98;72.15
79250;BME280;68679;51.030;7.584;2024-02-23T02:04:12;96580.41;;;6.94;71.58
79250;BME280;68679;51.030;7.584;2024-02-23T02:06:37;96582.84;;;6.91;71.09
79250;BME280;68679;51.030;7.584;2024-02-23T02:09:03;96585.75;;;6.89;71.83
79250;BME280;68679;51.030;7.584;2024-02-23T02:11:28;96585.31;;;6.87;72.70
79250;BME280;68679;51.030;7.584;2024-02-23T02:13:53;96589.28;;;6.85;71.63
79250;BME280;68679;51.030;7.584;2024-02-23T02:16:19;96589.59;;;6.83;72.22
79250;BME280;68679;51.030;7.584;2024-02-23T02:18:44;96597.72;;;6.82;72.01
79250;BME280;68679;51.030;7.584;2024-02-23T02:21:11;96600.63;;;6.80;71.25
79250;BME280;68679;51.030;7.584;2024-02-23T02:23:36;96608.72;;;6.79;72.52
79250;BME280;68679;51.030;7.584;2024-02-23T02:26:02;96606.88;;;6.79;72.20
79250;BME280;68679;51.030;7.584;2024-02-23T02:28:28;96611.50;;;6.74;71.39
79250;BME280;68679;51.030;7.584;2024-02-23T02:30:53;96612.56;;;6.72;71.76
79250;BME280;68679;51.030;7.584;2024-02-23T02:33:19;96614.84;;;6.65;70.66
79250;BME280;68679;51.030;7.584;2024-02-23T02:35:44;96619.28;;;6.56;70.23
79250;BME280;68679;51.030;7.584;2024-02-23T02:38:13;96623.09;;;6.50;71.00
79250;BME280;68679;51.030;7.584;2024-02-23T02:40:38;96629.97;;;6.55;72.41
79250;BME280;68679;51.030;7.584;2024-02-23T02:43:04;96629.38;;;6.58;71.07
79250;BME280;68679;51.030;7.584;2024-02-23T02:45:29;96638.41;;;6.60;71.35
79250;BME280;68679;51.030;7.584;2024-02-23T02:47:54;96638.72;;;6.59;73.18
79250;BME280;68679;51.030;7.584;2024-02-23T02:50:21;96651.28;;;6.57;71.98
79250;BME280;68679;51.030;7.584;2024-02-23T02:52:47;96645.47;;;6.60;71.63
79250;BME280;68679;51.030;7.584;2024-02-23T02:55:12;96653.59;;;6.58;71.50
79250;BME280;68679;51.030;7.584;2024-02-23T02:57:38;96650.97;;;6.58;71.16
79250;BME280;68679;51.030;7.584;2024-02-23T03:00:04;96654.34;;;6.50;70.89
79250;BME280;68679;51.030;7.584;2024-02-23T03:02:34;96663.38;;;6.53;70.88
79250;BME280;68679;51.030;7.584;2024-02-23T03:04:59;96658.16;;;6.53;70.86
79250;BME280;68679;51.030;7.584;2024-02-23T03:07:25;96663.19;;;6.49;70.81
79250;BME280;68679;51.030;7.584;2024-02-23T03:09:50;96671.94;;;6.44;70.13
79250;BME280;68679;51.030;7.584;2024-02-23T03:12:16;96662.72;;;6.38;70.56
79250;BME280;68679;51.030;7.584;2024-02-23T03:14:41;96665.34;;;6.38;70.87
79250;BME280;68679;51.030;7.584;2024-02-23T03:17:07;96660.44;;;6.45;71.26
79250;BME280;68679;51.030;7.584;2024-02-23T03:19:33;96677.41;;;6.43;71.07
79250;BME280;68679;51.030;7.584;2024-02-23T03:21:58;96681.09;;;6.42;70.60
79250;BME280;68679;51.030;7.584;2024-02-23T03:24:24;96679.41;;;6.37;70.46
79250;BME280;68679;51.030;7.584;2024-02-23T03:26:49;96679.69;;;6.36;70.53
79250;BME280;68679;51.030;7.584;2024-02-23T03:29:15;96677.72;;;6.41;71.98
79250;BME280;68679;51.030;7.584;2024-02-23T03:31:40;96682.78;;;6.38;71.66
79250;BME280;68679;51.030;7.584;2024-02-23T03:34:06;96689.53;;;6.39;71.61
79250;BME280;68679;51.030;7.584;2024-02-23T03:36:31;96678.78;;;6.32;70.24
79250;BME280;68679;51.030;7.584;2024-02-23T03:38:57;96684.00;;;6.32;71.04
79250;BME280;68679;51.030;7.584;2024-02-23T03:41:22;96685.81;;;6.31;70.54
79250;BME280;68679;51.030;7.584;2024-02-23T03:43:47;96688.44;;;6.31;71.40
79250;BME280;68679;51.030;7.584;2024-02-23T03:46:12;96686.88;;;6.30;71.05
79250;BME280;68679;51.030;7.584;2024-02-23T03:48:40;96686.84;;;6.22;70.04
79250;BME280;68679;51.030;7.584;2024-02-23T03:51:05;96690.53;;;6.29;71.17
79250;BME280;68679;51.030;7.584;2024-02-23T03:53:31;96688.72;;;6.30;71.32
79250;BME280;68679;51.030;7.584;2024-02-23T03:55:59;96686.41;;;6.28;70.89
79250;BME280;68679;51.030;7.584;2024-02-23T03:58:24;96692.84;;;6.31;71.39
79250;BME280;68679;51.030;7.584;2024-02-23T04:00:49;96696.06;;;6.28;71.00
79250;BME280;68679;51.030;7.584;2024-02-23T04:03:15;96699.72;;;6.27;70.93
79250;BME280;68679;51.030;7.584;2024-02-23T04:05:40;96695.28;;;6.27;70.79
79250;BME280;68679;51.030;7.584;2024-02-23T04:08:05;96693.00;;;6.26;71.17
79250;BME280;68679;51.030;7.584;2024-02-23T04:10:31;96702.47;;;6.22;70.85
79250;BME280;68679;51.030;7.584;2024-02-23T04:12:57;96705.38;;;6.20;70.85
79250;BME280;68679;51.030;7.584;2024-02-23T04:15:23;96709.31;;;6.17;71.22
79250;BME280;68679;51.030;7.584;2024-02-23T04:17:48;96709.31;;;6.17;71.32
79250;BME280;68679;51.030;7.584;2024-02-23T04:20:13;96710.69;;;6.15;71.93
79250;BME280;68679;51.030;7.584;2024-02-23T04:22:39;96709.63;;;6.16;72.23
79250;BME280;68679;51.030;7.584;2024-02-23T04:25:04;96710.81;;;6.10;70.50
79250;BME280;68679;51.030;7.584;2024-02-23T04:27:30;96706.06;;;6.12;71.57
79250;BME280;68679;51.030;7.584;2024-02-23T04:29:55;96702.25;;;6.09;72.01
79250;BME280;68679;51.030;7.584;2024-02-23T04:32:21;96704.38;;;6.07;71.30
79250;BME280;68679;51.030;7.584;2024-02-23T04:34:46;96701.31;;;6.05;71.89
79250;BME280;68679;51.030;7.584;2024-02-23T04:37:12;96708.84;;;6.07;71.60
79250;BME280;68679;51.030;7.584;2024-02-23T04:39:37;96704.97;;;6.04;71.04
79250;BME280;68679;51.030;7.584;2024-02-23T04:42:03;96704.50;;;6.02;72.37
79250;BME280;68679;51.030;7.584;2024-02-23T04:44:29;96707.88;;;6.03;72.17
79250;BME280;68679;51.030;7.584;2024-02-23T04:46:54;96709.72;;;6.02;72.21
79250;BME280;68679;51.030;7.584;2024-02-23T04:49:20;96710.03;;;6.01;72.38
79250;BME280;68679;51.030;7.584;2024-02-23T04:51:45;96711.56;;;6.02;72.25
79250;BME280;68679;51.030;7.584;2024-02-23T04:54:10;96710.16;;;5.96;70.99
79250;BME280;68679;51.030;7.584;2024-02-23T04:56:35;96719.47;;;5.97;72.01
79250;BME280;68679;51.030;7.584;2024-02-23T04:59:01;96719.63;;;6.00;71.95
79250;BME280;68679;51.030;7.584;2024-02-23T05:01:26;96713.19;;;5.98;71.95
79250;BME280;68679;51.030;7.584;2024-02-23T05:03:53;96710.22;;;5.90;71.12
79250;BME280;68679;51.030;7.584;2024-02-23T05:06:18;96710.22;;;5.90;70.55
79250;BME280;68679;51.030;7.584;2024-02-23T05:08:43;96716.41;;;5.95;71.44
79250;BME280;68679;51.030;7.584;2024-02-23T05:11:09;96710.41;;;5.94;72.23
79250;BME280;68679;51.030;7.584;2024-02-23T05:13:34;96709.66;;;5.94;71.79
79250;BME280;68679;51.030;7.584;2024-02-23T05:16:00;96708.13;;;5.93;72.05
79250;BME280;68679;51.030;7.584;2024-02-23T05:18:25;96706.22;;;5.84;71.18
79250;BME280;68679;51.030;7.584;2024-02-23T05:20:51;96712.19;;;5.85;71.87
79250;BME280;68679;51.030;7.584;2024-02-23T05:23:16;96711.41;;;5.84;70.88
79250;BME280;68679;51.030;7.584;2024-02-23T05:25:42;96715.09;;;5.83;71.33
79250;BME280;68679;51.030;7.584;2024-02-23T05:28:07;96712.19;;;5.85;72.39
79250;BME280;68679;51.030;7.584;2024-02-23T05:30:33;96715.09;;;5.83;72.16
79250;BME280;68679;51.030;7.584;2024-02-23T05:32:58;96711.72;;;5.83;71.62
79250;BME280;68679;51.030;7.584;2024-02-23T05:35:24;96713.06;;;5.80;70.89
79250;BME280;68679;51.030;7.584;2024-02-23T05:37:50;96699.31;;;5.80;71.57
79250;BME280;68679;51.030;7.584;2024-02-23T05:40:15;96709.50;;;5.76;70.95
79250;BME280;68679;51.030;7.584;2024-02-23T05:42:40;96704.81;;;5.78;71.05
79250;BME280;68679;51.030;7.584;2024-02-23T05:45:09;96702.22;;;5.78;72.27
79250;BME280;68679;51.030;7.584;2024-02-23T05:47:36;96703.41;;;5.72;70.61
79250;BME280;68679;51.030;7.584;2024-02-23T05:50:02;96712.72;;;5.73;71.12
79250;BME280;68679;51.030;7.584;2024-02-23T05:52:28;96713.78;;;5.72;71.47
79250;BME280;68679;51.030;7.584;2024-02-23T05:54:53;96713.31;;;5.70;71.40
79250;BME280;68679;51.030;7.584;2024-02-23T05:57:21;96708.91;;;5.71;70.96
79250;BME280;68679;51.030;7.584;2024-02-23T05:59:46;96718.50;;;5.70;71.10
79250;BME280;68679;51.030;7.584;2024-02-23T06:02:11;96711.63;;;5.65;71.30
79250;BME280;68679;51.030;7.584;2024-02-23T06:04:36;96709.28;;;5.64;71.91
79250;BME280;68679;51.030;7.584;2024-02-23T06:07:02;96709.59;;;5.62;71.44
79250;BME280;68679;51.030;7.584;2024-02-23T06:09:27;96715.97;;;5.56;71.24
79250;BME280;68679;51.030;7.584;2024-02-23T06:11:52;96715.03;;;5.52;71.30
79250;BME280;68679;51.030;7.584;2024-02-23T06:14:17;96714.91;;;5.57;72.14
79250;BME280;68679;51.030;7.584;2024-02-23T06:16:45;96713.97;;;5.53;72.00
79250;BME280;68679;51.030;7.584;2024-02-23T06:19:11;96708.59;;;5.50;70.80
79250;BME280;68679;51.030;7.584;2024-02-23T06:21:36;96713.97;;;5.53;72.21
79250;BME280;68679;51.030;7.584;2024-02-23T06:24:01;96717.75;;;5.47;71.91
79250;BME280;68679;51.030;7.584;2024-02-23T06:26:27;96714.97;;;5.44;71.58
79250;BME280;68679;51.030;7.584;2024-02-23T06:28:55;96711.13;;;5.41;71.11
79250;BME280;68679;51.030;7.584;2024-02-23T06:31:20;96710.84;;;5.43;73.37
79250;BME280;68679;51.030;7.584;2024-02-23T06:33:45;96699.78;;;5.37;71.68
79250;BME280;68679;51.030;7.584;2024-02-23T06:36:14;96704.50;;;5.35;72.46
79250;BME280;68679;51.030;7.584;2024-02-23T06:38:39;96695.75;;;5.31;72.83
79250;BME280;68679;51.030;7.584;2024-02-23T06:41:04;96692.50;;;5.25;71.52
79250;BME280;68679;51.030;7.584;2024-02-23T06:43:30;96693.88;;;5.23;72.26
79250;BME280;68679;51.030;7.584;2024-02-23T06:45:56;96698.75;;;5.24;73.91
79250;BME280;68679;51.030;7.584;2024-02-23T06:48:23;96697.22;;;5.23;72.91
79250;BME280;68679;51.030;7.584;2024-02-23T06:50:49;96710.63;;;5.17;71.52
79250;BME280;68679;51.030;7.584;2024-02-23T06:53:14;96709.56;;;5.18;71.54
79250;BME280;68679;51.030;7.584;2024-02-23T06:55:40;96713.38;;;5.20;72.08
79250;BME280;68679;51.030;7.584;2024-02-23T06:58:05;96717.06;;;5.19;71.74
79250;BME280;68679;51.030;7.584;2024-02-23T07:00:32;96718.13;;;5.18;71.75
79250;BME280;68679;51.030;7.584;2024-02-23T07:02:57;96713.22;;;5.17;72.73
79250;BME280;68679;51.030;7.584;2024-02-23T07:05:28;96715.81;;;5.17;71.53
79250;BME280;68679;51.030;7.584;2024-02-23T07:07:54;96714.09;;;5.12;71.92
79250;BME280;68679;51.030;7.584;2024-02-23T07:10:19;96708.44;;;5.10;71.94
79250;BME280;68679;51.030;7.584;2024-02-23T07:12:45;96707.38;;;5.11;72.50
79250;BME280;68679;51.030;7.584;2024-02-23T07:15:11;96707.84;;;5.13;73.35
79250;BME280;68679;51.030;7.584;2024-02-23T07:17:36;96707.84;;;5.13;73.08
79250;BME280;68679;51.030;7.584;2024-02-23T07:20:01;96710.91;;;5.15;72.90
79250;BME280;68679;51.030;7.584;2024-02-23T07:22:32;96713.50;;;5.15;72.24
79250;BME280;68679;51.030;7.584;2024-02-23T07:24:57;96718.59;;;5.20;73.56
79250;BME280;68679;51.030;7.584;2024-02-23T07:27:22;96711.56;;;5.21;72.18
79250;BME280;68679;51.030;7.584;2024-02-23T07:29:48;96717.81;;;5.20;73.48
79250;BME280;68679;51.030;7.584;2024-02-23T07:32:13;96725.16;;;5.18;72.87
79250;BME280;68679;51.030;7.584;2024-02-23T07:34:38;96726.22;;;5.17;72.50
79250;BME280;68679;51.030;7.584;2024-02-23T07:37:04;96737.53;;;5.21;73.60
79250;BME280;68679;51.030;7.584;2024-02-23T07:39:29;96732.34;;;5.21;73.35
79250;BME280;68679;51.030;7.584;2024-02-23T07:41:54;96738.13;;;5.18;72.50
79250;BME280;68679;51.030;7.584;2024-02-23T07:44:20;96741.50;;;5.18;73.08
79250;BME280;68679;51.030;7.584;2024-02-23T07:46:48;96749.50;;;5.22;72.76
79250;BME280;68679;51.030;7.584;2024-02-23T07:49:13;96740.63;;;5.23;72.86
79250;BME280;68679;51.030;7.584;2024-02-23T07:51:38;96756.22;;;5.23;73.25
79250;BME280;68679;51.030;7.584;2024-02-23T07:54:04;96753.63;;;5.23;73.40
79250;BME280;68679;51.030;7.584;2024-02-23T07:56:30;96756.50;;;5.21;73.05
79250;BME280;68679;51.030;7.584;2024-02-23T07:58:55;96763.50;;;5.21;73.26
79250;BME280;68679;51.030;7.584;2024-02-23T08:01:21;96766.59;;;5.23;73.40
79250;BME280;68679;51.030;7.584;2024-02-23T08:03:47;96762.94;;;5.24;73.33
79250;BME280;68679;51.030;7.584;2024-02-23T08:06:12;96759.28;;;5.25;73.27
79250;BME280;68679;51.030;7.584;2024-02-23T08:08:38;96765.25;;;5.25;73.23
79250;BME280;68679;51.030;7.584;2024-02-23T08:11:03;96760.50;;;5.27;73.42
79250;BME280;68679;51.030;7.584;2024-02-23T08:13:29;96759.19;;;5.30;73.43
79250;BME280;68679;51.030;7.584;2024-02-23T08:15:54;96757.34;;;5.30;73.64
79250;BME280;68679;51.030;7.584;2024-02-23T08:18:20;96763.00;;;5.32;73.77
79250;BME280;68679;51.030;7.584;2024-02-23T08:20:47;96764.53;;;5.33;73.36
79250;BME280;68679;51.030;7.584;2024-02-23T08:23:12;96767.63;;;5.35;73.55
79250;BME280;68679;51.030;7.584;2024-02-23T08:25:38;96761.06;;;5.38;73.62
79250;BME280;68679;51.030;7.584;2024-02-23T08:28:03;96763.88;;;5.42;73.54
79250;BME280;68679;51.030;7.584;2024-02-23T08:30:29;96762.03;;;5.42;73.63
79250;BME280;68679;51.030;7.584;2024-02-23T08:32:54;96767.69;;;5.44;73.57
79250;BME280;68679;51.030;7.584;2024-02-23T08:35:19;96761.16;;;5.47;73.91
79250;BME280;68679;51.030;7.584;2024-02-23T08:37:45;96764.22;;;5.49;73.87
79250;BME280;68679;51.030;7.584;2024-02-23T08:40:11;96769.63;;;5.52;73.98
79250;BME280;68679;51.030;7.584;2024-02-23T08:42:37;96770.38;;;5.53;73.65
79250;BME280;68679;51.030;7.584;2024-02-23T08:45:02;96769.22;;;5.59;73.90
79250;BME280;68679;51.030;7.584;2024-02-23T08:47:27;96774.28;;;5.64;73.94
79250;BME280;68679;51.030;7.584;2024-02-23T08:49:57;96781.31;;;5.63;73.80
79250;BME280;68679;51.030;7.584;2024-02-23T08:52:22;96779.97;;;5.66;74.05
79250;BME280;68679;51.030;7.584;2024-02-23T08:54:48;96779.38;;;5.69;73.82
79250;BME280;68679;51.030;7.584;2024-02-23T08:57:13;96782.72;;;5.70;74.11
79250;BME280;68679;51.030;7.584;2024-02-23T08:59:42;96772.81;;;5.72;73.96
79250;BME280;68679;51.030;7.584;2024-02-23T09:02:07;96781.84;;;5.74;74.19
79250;BME280;68679;51.030;7.584;2024-02-23T09:04:34;96778.19;;;5.75;74.12
79250;BME280;68679;51.030;7.584;2024-02-23T09:07:00;96780.50;;;5.77;74.36
79250;BME280;68679;51.030;7.584;2024-02-23T09:09:26;96782.22;;;5.81;74.45
79250;BME280;68679;51.030;7.584;2024-02-23T09:11:51;96774.13;;;5.83;74.31
79250;BME280;68679;51.030;7.584;2024-02-23T09:14:16;96783.16;;;5.85;74.32
79250;BME280;68679;51.030;7.584;2024-02-23T09:16:42;96783.34;;;5.89;74.52
79250;BME280;68679;51.030;7.584;2024-02-23T09:19:07;96779.41;;;5.91;74.27
79250;BME280;68679;51.030;7.584;2024-02-23T09:21:32;96784.31;;;5.93;74.16
79250;BME280;68679;51.030;7.584;2024-02-23T09:23:58;96783.44;;;5.98;74.38
79250;BME280;68679;51.030;7.584;2024-02-23T09:26:24;96786.22;;;6.01;74.38
79250;BME280;68679;51.030;7.584;2024-02-23T09:28:49;96781.78;;;6.02;74.32
79250;BME280;68679;51.030;7.584;2024-02-23T09:31:15;96789.75;;;6.05;74.56
79250;BME280;68679;51.030;7.584;2024-02-23T09:33:40;96794.38;;;6.08;74.27
79250;BME280;68679;51.030;7.584;2024-02-23T09:36:06;96790.88;;;6.13;74.55
79250;BME280;68679;51.030;7.584;2024-02-23T09:38:31;96791.81;;;6.17;74.56
79250;BME280;68679;51.030;7.584;2024-02-23T09:40:57;96791.22;;;6.20;74.54
79250;BME280;68679;51.030;7.584;2024-02-23T09:43:24;96788.78;;;6.24;74.39
79250;BME280;68679;51.030;7.584;2024-02-23T09:45:52;96793.88;;;6.29;74.32
79250;BME280;68679;51.030;7.584;2024-02-23T09:48:21;96793.28;;;6.32;74.30
79250;BME280;68679;51.030;7.584;2024-02-23T09:50:47;96794.22;;;6.36;74.47
79250;BME280;68679;51.030;7.584;2024-02-23T09:53:13;96799.59;;;6.39;74.27
79250;BME280;68679;51.030;7.584;2024-02-23T09:55:39;96804.19;;;6.42;74.10
79250;BME280;68679;51.030;7.584;2024-02-23T09:58:06;96798.41;;;6.45;74.40
79250;BME280;68679;51.030;7.584;2024-02-23T10:00:34;96807.44;;;6.48;74.26
79250;BME280;68679;51.030;7.584;2024-02-23T10:03:02;96806.09;;;6.51;74.23
79250;BME280;68679;51.030;7.584;2024-02-23T10:05:31;96795.06;;;6.54;74.30
79250;BME280;68679;51.030;7.584;2024-02-23T10:07:59;96801.03;;;6.54;74.03
79250;BME280;68679;51.030;7.584;2024-02-23T10:10:29;96791.88;;;6.57;74.04
79250;BME280;68679;51.030;7.584;2024-02-23T10:12:55;96788.97;;;6.58;74.09
79250;BME280;68679;51.030;7.584;2024-02-23T10:15:20;96801.41;;;6.61;74.06
79250;BME280;68679;51.030;7.584;2024-02-23T10:17:45;96794.06;;;6.63;74.01
79250;BME280;68679;51.030;7.584;2024-02-23T10:20:11;96786.38;;;6.67;73.81
79250;BME280;68679;51.030;7.584;2024-02-23T10:22:36;96787.94;;;6.68;73.83
79250;BME280;68679;51.030;7.584;2024-02-23T10:25:01;96794.06;;;6.72;73.80
79250;BME280;68679;51.030;7.584;2024-02-23T10:27:27;96798.69;;;6.75;74.00
79250;BME280;68679;51.030;7.584;2024-02-23T10:29:53;96796.25;;;6.79;74.05
79250;BME280;68679;51.030;7.584;2024-02-23T10:32:19;96792.28;;;6.81;74.02
79250;BME280;68679;51.030;7.584;2024-02-23T10:34:48;96800.25;;;6.85;73.86
79250;BME280;68679;51.030;7.584;2024-02-23T10:37:16;96801.50;;;6.87;74.01
79250;BME280;68679;51.030;7.584;2024-02-23T10:39:42;96798.75;;;6.92;74.00
79250;BME280;68679;51.030;7.584;2024-02-23T10:42:09;96811.16;;;6.95;73.99
79250;BME280;68679;51.030;7.584;2024-02-23T10:44:39;96807.97;;;6.98;73.71
79250;BME280;68679;51.030;7.584;2024-02-23T10:47:06;96805.53;;;7.02;73.90
79250;BME280;68679;51.030;7.584;2024-02-23T10:49:32;96804.94;;;7.05;73.80
79250;BME280;68679;51.030;7.584;2024-02-23T10:51:58;96813.19;;;7.07;73.73
79250;BME280;68679;51.030;7.584;2024-02-23T10:54:23;96805.56;;;7.11;73.85
79250;BME280;68679;51.030;7.584;2024-02-23T10:56:50;96813.06;;;7.12;73.64
79250;BME280;68679;51.030;7.584;2024-02-23T10:59:17;96798.66;;;7.15;73.68
79250;BME280;68679;51.030;7.584;2024-02-23T11:01:47;96800.19;;;7.16;73.70
79250;BME280;68679;51.030;7.584;2024-02-23T11:04:16;96800.34;;;7.19;73.75
79250;BME280;68679;51.030;7.584;2024-02-23T11:06:41;96807.88;;;7.21;73.59
79250;BME280;68679;51.030;7.584;2024-02-23T11:09:07;96813.56;;;7.23;73.91
79250;BME280;68679;51.030;7.584;2024-02-23T11:11:36;96812.94;;;7.26;74.14
79250;BME280;68679;51.030;7.584;2024-02-23T11:14:03;96813.41;;;7.28;74.02
79250;BME280;68679;51.030;7.584;2024-02-23T11:16:32;96800.84;;;7.30;73.80
79250;BME280;68679;51.030;7.584;2024-02-23T11:19:04;96792.72;;;7.32;74.10
79250;BME280;68679;51.030;7.584;2024-02-23T11:21:34;96799.94;;;7.35;73.62
79250;BME280;68679;51.030;7.584;2024-02-23T11:24:05;96799.63;;;7.36;73.64
79250;BME280;68679;51.030;7.584;2024-02-23T11:26:31;96795.63;;;7.39;73.81
79250;BME280;68679;51.030;7.584;2024-02-23T11:29:10;96795.34;;;7.40;73.54
79250;BME280;68679;51.030;7.584;2024-02-23T11:31:36;96788.75;;;7.43;73.40
79250;BME280;68679;51.030;7.584;2024-02-23T11:34:08;96797.78;;;7.45;73.49
79250;BME280;68679;51.030;7.584;2024-02-23T11:36:34;96789.69;;;7.47;73.37
79250;BME280;68679;51.030;7.584;2024-02-23T11:39:01;96790.91;;;7.49;73.69
79250;BME280;68679;51.030;7.584;2024-02-23T11:41:27;96782.47;;;7.52;73.59
79250;BME280;68679;51.030;7.584;2024-02-23T11:43:54;96788.91;;;7.55;73.16
79250;BME280;68679;51.030;7.584;2024-02-23T11:46:26;96783.38;;;7.57;73.29
79250;BME280;68679;51.030;7.584;2024-02-23T11:48:51;96786.47;;;7.59;73.25
79250;BME280;68679;51.030;7.584;2024-02-23T11:51:20;96789.22;;;7.62;73.21
79250;BME280;68679;51.030;7.584;2024-02-23T11:53:47;96791.81;;;7.62;73.03
79250;BME280;68679;51.030;7.584;2024-02-23T11:56:12;96793.84;;;7.65;73.15
79250;BME280;68679;51.030;7.584;2024-02-23T11:58:39;96798.41;;;7.68;72.94
79250;BME280;68679;51.030;7.584;2024-02-23T12:01:04;96800.44;;;7.71;72.93
79250;BME280;68679;51.030;7.584;2024-02-23T12:03:30;96795.66;;;7.73;73.02
79250;BME280;68679;51.030;7.584;2024-02-23T12:06:01;96792.91;;;7.78;73.21
79250;BME280;68679;51.030;7.584;2024-02-23T12:08:27;96795.66;;;7.82;73.21
79250;BME280;68679;51.030;7.584;2024-02-23T12:10:56;96781.69;;;7.87;73.06
79250;BME280;68679;51.030;7.584;2024-02-23T12:13:22;96792.28;;;7.90;73.71
79250;BME280;68679;51.030;7.584;2024-02-23T12:15:48;96794.44;;;7.97;73.18
79250;BME280;68679;51.030;7.584;2024-02-23T12:18:13;96783.06;;;8.01;72.84
79250;BME280;68679;51.030;7.584;2024-02-23T12:20:40;96799.19;;;8.03;73.22
79250;BME280;68679;51.030;7.584;2024-02-23T12:23:05;96797.78;;;8.06;72.89
79250;BME280;68679;51.030;7.584;2024-02-23T12:25:33;96787.94;;;8.12;72.81
79250;BME280;68679;51.030;7.584;2024-02-23T12:27:58;96789.19;;;8.14;72.86
79250;BME280;68679;51.030;7.584;2024-02-23T12:30:26;96781.19;;;8.19;72.83
79250;BME280;68679;51.030;7.584;2024-02-23T12:32:51;96771.97;;;8.22;72.95
79250;BME280;68679;51.030;7.584;2024-02-23T12:35:17;96787.78;;;8.25;73.00
79250;BME280;68679;51.030;7.584;2024-02-23T12:37:43;96790.09;;;8.27;72.97
79250;BME280;68679;51.030;7.584;2024-02-23T12:40:10;96779.31;;;8.28;72.81
79250;BME280;68679;51.030;7.584;2024-02-23T12:42:35;96789.16;;;8.31;72.57
79250;BME280;68679;51.030;7.584;2024-02-23T12:45:01;96781.31;;;8.31;72.65
79250;BME280;68679;51.030;7.584;2024-02-23T12:47:26;96794.50;;;8.35;72.55
79250;BME280;68679;51.030;7.584;2024-02-23T12:49:51;96785.91;;;8.34;72.82
79250;BME280;68679;51.030;7.584;2024-02-23T12:52:16;96790.84;;;8.36;72.51
79250;BME280;68679;51.030;7.584;2024-02-23T12:54:42;96774.09;;;8.37;72.59
79250;BME280;68679;51.030;7.584;2024-02-23T12:57:07;96789.47;;;8.39;72.50
79250;BME280;68679;51.030;7.584;2024-02-23T12:59:33;96799.16;;;8.38;72.55
79250;BME280;68679;51.030;7.584;2024-02-23T13:01:59;96802.53;;;8.39;72.38